sensor_id;sensor_type;location;lat;lon;timestamp;P1;durP1;ratioP1;P2;durP2;ratioP2
53646;SDS011;39550;52.230;5.194;2023-11-21T00:02:56;16.50;;;11.02;;
53646;SDS011;39550;52.230;5.194;2023-11-21T00:05:59;17.83;;;11.75;;
53646;SDS011;39550;52.230;5.194;2023-11-21T00:08:34;15.95;;;11.55;;
53646;SDS011;39550;52.230;5.194;2023-11-21T00:11:08;15.77;;;11.02;;
53646;SDS011;39550;52.230;5.194;2023-11-21T00:13:53;17.42;;;10.48;;
53646;SDS011;39550;52.230;5.194;2023-11-21T00:19:40;16.45;;;10.50;;
53646;SDS011;39550;52.230;5.194;2023-11-21T00:22:10;14.85;;;10.48;;
53646;SDS011;39550;52.230;5.194;2023-11-21T00:24:39;16.30;;;10.25;;
53646;SDS011;39550;52.230;5.194;2023-11-21T00:27:29;17.10;;;11.60;;
53646;SDS011;39550;52.230;5.194;2023-11-21T00:30:10;18.63;;;11.27;;
53646;SDS011;39550;52.230;5.194;2023-11-21T00:32:50;17.42;;;11.35;;
53646;SDS011;39550;52.230;5.194;2023-11-21T00:35:19;15.35;;;10.50;;
53646;SDS011;39550;52.230;5.194;2023-11-21T00:38:02;16.05;;;10.43;;
53646;SDS011;39550;52.230;5.194;2023-11-21T00:40:52;18.52;;;10.40;;
53646;SDS011;39550;52.230;5.194;2023-11-21T00:43:23;17.38;;;10.40;;
53646;SDS011;39550;52.230;5.194;2023-11-21T00:46:09;14.88;;;10.13;;
53646;SDS011;39550;52.230;5.194;2023-11-21T00:48:53;16.63;;;9.98;;
53646;SDS011;39550;52.230;5.194;2023-11-21T00:52:10;14.57;;;9.90;;
53646;SDS011;39550;52.230;5.194;2023-11-21T00:55:27;17.08;;;11.25;;
53646;SDS011;39550;52.230;5.194;2023-11-21T00:57:57;15.68;;;10.15;;
53646;SDS011;39550;52.230;5.194;2023-11-21T01:00:49;15.77;;;10.47;;
53646;SDS011;39550;52.230;5.194;2023-11-21T01:03:33;15.15;;;9.77;;
53646;SDS011;39550;52.230;5.194;2023-11-21T01:06:21;16.75;;;10.55;;
53646;SDS011;39550;52.230;5.194;2023-11-21T01:11:43;15.52;;;10.27;;
53646;SDS011;39550;52.230;5.194;2023-11-21T01:14:34;13.98;;;9.52;;
53646;SDS011;39550;52.230;5.194;2023-11-21T01:17:19;13.60;;;9.90;;
53646;SDS011;39550;52.230;5.194;2023-11-21T01:20:03;15.40;;;10.70;;
53646;SDS011;39550;52.230;5.194;2023-11-21T01:22:43;17.98;;;10.90;;
53646;SDS011;39550;52.230;5.194;2023-11-21T01:25:29;14.90;;;9.80;;
53646;SDS011;39550;52.230;5.194;2023-11-21T01:27:57;14.23;;;10.27;;
53646;SDS011;39550;52.230;5.194;2023-11-21T01:30:36;13.30;;;9.32;;
53646;SDS011;39550;52.230;5.194;2023-11-21T01:33:12;14.75;;;9.57;;
53646;SDS011;39550;52.230;5.194;2023-11-21T01:39:24;16.27;;;9.73;;
53646;SDS011;39550;52.230;5.194;2023-11-21T01:41:58;15.52;;;9.85;;
53646;SDS011;39550;52.230;5.194;2023-11-21T01:44:47;14.05;;;9.60;;
53646;SDS011;39550;52.230;5.194;2023-11-21T01:47:23;15.52;;;9.60;;
53646;SDS011;39550;52.230;5.194;2023-11-21T01:50:08;14.85;;;9.15;;
53646;SDS011;39550;52.230;5.194;2023-11-21T01:52:37;14.30;;;10.15;;
53646;SDS011;39550;52.230;5.194;2023-11-21T01:57:46;11.98;;;9.05;;
53646;SDS011;39550;52.230;5.194;2023-11-21T02:02:58;14.25;;;9.95;;
53646;SDS011;39550;52.230;5.194;2023-11-21T02:05:39;14.45;;;10.25;;
53646;SDS011;39550;52.230;5.194;2023-11-21T02:08:15;12.90;;;9.65;;
53646;SDS011;39550;52.230;5.194;2023-11-21T02:10:58;13.13;;;9.50;;
53646;SDS011;39550;52.230;5.194;2023-11-21T02:19:41;13.02;;;8.77;;
53646;SDS011;39550;52.230;5.194;2023-11-21T02:22:09;14.00;;;8.98;;
53646;SDS011;39550;52.230;5.194;2023-11-21T02:25:22;11.93;;;8.13;;
53646;SDS011;39550;52.230;5.194;2023-11-21T02:28:08;14.20;;;9.30;;
53646;SDS011;39550;52.230;5.194;2023-11-21T02:34:14;13.02;;;8.52;;
53646;SDS011;39550;52.230;5.194;2023-11-21T02:37:04;11.35;;;8.52;;
53646;SDS011;39550;52.230;5.194;2023-11-21T02:40:07;14.00;;;9.07;;
53646;SDS011;39550;52.230;5.194;2023-11-21T02:43:45;12.07;;;8.88;;
53646;SDS011;39550;52.230;5.194;2023-11-21T02:46:33;11.65;;;7.95;;
53646;SDS011;39550;52.230;5.194;2023-11-21T02:49:35;13.02;;;8.88;;
53646;SDS011;39550;52.230;5.194;2023-11-21T02:52:23;14.82;;;9.55;;
53646;SDS011;39550;52.230;5.194;2023-11-21T02:55:16;13.20;;;8.55;;
53646;SDS011;39550;52.230;5.194;2023-11-21T03:04:56;11.45;;;7.68;;
53646;SDS011;39550;52.230;5.194;2023-11-21T03:07:30;11.35;;;7.97;;
53646;SDS011;39550;52.230;5.194;2023-11-21T03:10:04;12.20;;;8.20;;
53646;SDS011;39550;52.230;5.194;2023-11-21T03:12:37;9.98;;;7.05;;
53646;SDS011;39550;52.230;5.194;2023-11-21T03:15:24;10.82;;;7.88;;
53646;SDS011;39550;52.230;5.194;2023-11-21T03:17:58;11.63;;;7.93;;
53646;SDS011;39550;52.230;5.194;2023-11-21T03:20:32;13.45;;;7.82;;
53646;SDS011;39550;52.230;5.194;2023-11-21T03:23:07;12.30;;;7.50;;
53646;SDS011;39550;52.230;5.194;2023-11-21T03:28:52;12.98;;;8.07;;
53646;SDS011;39550;52.230;5.194;2023-11-21T03:31:31;10.47;;;7.60;;
53646;SDS011;39550;52.230;5.194;2023-11-21T03:40:03;13.07;;;7.85;;
53646;SDS011;39550;52.230;5.194;2023-11-21T03:42:49;8.98;;;6.97;;
53646;SDS011;39550;52.230;5.194;2023-11-21T03:45:47;10.38;;;7.80;;
53646;SDS011;39550;52.230;5.194;2023-11-21T03:48:18;10.75;;;7.78;;
53646;SDS011;39550;52.230;5.194;2023-11-21T03:53:36;10.63;;;6.88;;
53646;SDS011;39550;52.230;5.194;2023-11-21T03:58:42;10.68;;;7.50;;
53646;SDS011;39550;52.230;5.194;2023-11-21T04:01:19;11.32;;;7.60;;
53646;SDS011;39550;52.230;5.194;2023-11-21T04:04:11;10.85;;;7.63;;
53646;SDS011;39550;52.230;5.194;2023-11-21T04:07:08;11.82;;;7.32;;
53646;SDS011;39550;52.230;5.194;2023-11-21T04:10:01;12.90;;;8.23;;
53646;SDS011;39550;52.230;5.194;2023-11-21T04:12:41;20.35;;;7.55;;
53646;SDS011;39550;52.230;5.194;2023-11-21T04:15:31;11.27;;;7.60;;
53646;SDS011;39550;52.230;5.194;2023-11-21T04:18:11;10.05;;;7.15;;
53646;SDS011;39550;52.230;5.194;2023-11-21T04:24:01;9.68;;;7.15;;
53646;SDS011;39550;52.230;5.194;2023-11-21T04:27:05;8.63;;;6.43;;
53646;SDS011;39550;52.230;5.194;2023-11-21T04:32:38;10.50;;;7.70;;
53646;SDS011;39550;52.230;5.194;2023-11-21T04:35:33;9.93;;;6.97;;
53646;SDS011;39550;52.230;5.194;2023-11-21T04:38:18;15.45;;;7.07;;
53646;SDS011;39550;52.230;5.194;2023-11-21T04:40:55;10.40;;;6.80;;
53646;SDS011;39550;52.230;5.194;2023-11-21T04:43:53;10.70;;;6.63;;
53646;SDS011;39550;52.230;5.194;2023-11-21T04:46:26;10.07;;;6.68;;
53646;SDS011;39550;52.230;5.194;2023-11-21T04:49:18;13.15;;;6.70;;
53646;SDS011;39550;52.230;5.194;2023-11-21T04:51:57;11.38;;;7.25;;
53646;SDS011;39550;52.230;5.194;2023-11-21T04:54:40;11.45;;;6.53;;
53646;SDS011;39550;52.230;5.194;2023-11-21T04:57:08;10.60;;;6.95;;
53646;SDS011;39550;52.230;5.194;2023-11-21T04:59:39;10.25;;;6.78;;
53646;SDS011;39550;52.230;5.194;2023-11-21T05:12:55;9.65;;;6.55;;
53646;SDS011;39550;52.230;5.194;2023-11-21T05:15:23;12.32;;;6.82;;
53646;SDS011;39550;52.230;5.194;2023-11-21T05:21:08;9.98;;;6.78;;
53646;SDS011;39550;52.230;5.194;2023-11-21T05:23:34;9.75;;;6.80;;
53646;SDS011;39550;52.230;5.194;2023-11-21T05:26:13;9.55;;;6.45;;
53646;SDS011;39550;52.230;5.194;2023-11-21T06:54:05;9.70;;;6.20;;
53646;SDS011;39550;52.230;5.194;2023-11-21T06:56:35;8.98;;;6.05;;
53646;SDS011;39550;52.230;5.194;2023-11-21T07:06:28;9.50;;;5.28;;
53646;SDS011;39550;52.230;5.194;2023-11-21T07:08:56;8.13;;;5.63;;
53646;SDS011;39550;52.230;5.194;2023-11-21T07:11:24;9.52;;;5.75;;
53646;SDS011;39550;52.230;5.194;2023-11-21T07:17:35;8.15;;;5.57;;
53646;SDS011;39550;52.230;5.194;2023-11-21T10:21:35;6.65;;;4.05;;
53646;SDS011;39550;52.230;5.194;2023-11-21T11:38:36;8.50;;;5.53;;
53646;SDS011;39550;52.230;5.194;2023-11-21T11:41:31;8.63;;;5.53;;
53646;SDS011;39550;52.230;5.194;2023-11-21T11:47:16;9.32;;;6.03;;
53646;SDS011;39550;52.230;5.194;2023-11-21T11:50:05;9.80;;;5.70;;
53646;SDS011;39550;52.230;5.194;2023-11-21T11:52:41;9.55;;;5.53;;
53646;SDS011;39550;52.230;5.194;2023-11-21T11:55:22;10.20;;;5.72;;
53646;SDS011;39550;52.230;5.194;2023-11-21T11:58:09;10.00;;;6.43;;
53646;SDS011;39550;52.230;5.194;2023-11-21T12:00:44;9.45;;;5.93;;
53646;SDS011;39550;52.230;5.194;2023-11-21T12:03:36;9.20;;;5.63;;
53646;SDS011;39550;52.230;5.194;2023-11-21T12:08:52;9.30;;;5.30;;
53646;SDS011;39550;52.230;5.194;2023-11-21T12:11:30;9.45;;;6.15;;
53646;SDS011;39550;52.230;5.194;2023-11-21T12:13:59;8.30;;;5.38;;
53646;SDS011;39550;52.230;5.194;2023-11-21T12:16:56;9.38;;;5.68;;
53646;SDS011;39550;52.230;5.194;2023-11-21T12:19:31;9.02;;;5.57;;
53646;SDS011;39550;52.230;5.194;2023-11-21T12:25:51;10.05;;;5.78;;
53646;SDS011;39550;52.230;5.194;2023-11-21T12:31:42;9.80;;;5.85;;
53646;SDS011;39550;52.230;5.194;2023-11-21T12:37:41;9.07;;;5.85;;
53646;SDS011;39550;52.230;5.194;2023-11-21T12:42:57;9.85;;;5.82;;
53646;SDS011;39550;52.230;5.194;2023-11-21T12:49:11;9.63;;;5.70;;
53646;SDS011;39550;52.230;5.194;2023-11-21T12:52:19;9.77;;;6.20;;
53646;SDS011;39550;52.230;5.194;2023-11-21T12:55:35;8.63;;;4.90;;
53646;SDS011;39550;52.230;5.194;2023-11-21T12:58:05;10.43;;;6.00;;
53646;SDS011;39550;52.230;5.194;2023-11-21T13:01:08;8.93;;;5.63;;
53646;SDS011;39550;52.230;5.194;2023-11-21T13:04:07;9.55;;;6.03;;
53646;SDS011;39550;52.230;5.194;2023-11-21T13:06:47;8.63;;;5.50;;
53646;SDS011;39550;52.230;5.194;2023-11-21T13:09:28;9.82;;;5.85;;
53646;SDS011;39550;52.230;5.194;2023-11-21T13:12:07;8.68;;;5.57;;
53646;SDS011;39550;52.230;5.194;2023-11-21T13:14:42;9.20;;;5.50;;
53646;SDS011;39550;52.230;5.194;2023-11-21T13:17:38;10.70;;;6.88;;
53646;SDS011;39550;52.230;5.194;2023-11-21T13:20:09;10.68;;;6.15;;
53646;SDS011;39550;52.230;5.194;2023-11-21T13:28:35;11.55;;;6.35;;
53646;SDS011;39550;52.230;5.194;2023-11-21T13:31:27;10.90;;;6.13;;
53646;SDS011;39550;52.230;5.194;2023-11-21T13:34:06;9.43;;;6.13;;
53646;SDS011;39550;52.230;5.194;2023-11-21T13:36:35;12.27;;;6.43;;
53646;SDS011;39550;52.230;5.194;2023-11-21T13:39:26;10.93;;;6.78;;
53646;SDS011;39550;52.230;5.194;2023-11-21T13:44:56;11.88;;;6.90;;
53646;SDS011;39550;52.230;5.194;2023-11-21T13:58:04;11.00;;;7.13;;
53646;SDS011;39550;52.230;5.194;2023-11-21T14:03:54;10.82;;;6.40;;
53646;SDS011;39550;52.230;5.194;2023-11-21T14:27:16;9.98;;;6.13;;
53646;SDS011;39550;52.230;5.194;2023-11-21T15:06:19;11.57;;;6.70;;
53646;SDS011;39550;52.230;5.194;2023-11-21T15:09:13;12.90;;;7.82;;
53646;SDS011;39550;52.230;5.194;2023-11-21T15:11:52;10.75;;;6.68;;
53646;SDS011;39550;52.230;5.194;2023-11-21T15:14:34;11.55;;;7.75;;
53646;SDS011;39550;52.230;5.194;2023-11-21T15:17:04;11.98;;;7.85;;
53646;SDS011;39550;52.230;5.194;2023-11-21T15:19:32;10.75;;;7.13;;
53646;SDS011;39550;52.230;5.194;2023-11-21T15:22:07;12.88;;;8.00;;
53646;SDS011;39550;52.230;5.194;2023-11-21T15:24:33;13.13;;;8.52;;
53646;SDS011;39550;52.230;5.194;2023-11-21T15:27:10;14.13;;;8.40;;
53646;SDS011;39550;52.230;5.194;2023-11-21T15:29:37;12.48;;;7.93;;
53646;SDS011;39550;52.230;5.194;2023-11-21T15:32:07;13.80;;;8.48;;
53646;SDS011;39550;52.230;5.194;2023-11-21T15:34:33;13.52;;;7.90;;
53646;SDS011;39550;52.230;5.194;2023-11-21T15:36:59;13.70;;;8.30;;
53646;SDS011;39550;52.230;5.194;2023-11-21T15:39:37;14.00;;;8.35;;
53646;SDS011;39550;52.230;5.194;2023-11-21T15:42:11;12.95;;;8.38;;
53646;SDS011;39550;52.230;5.194;2023-11-21T15:44:45;11.15;;;7.88;;
53646;SDS011;39550;52.230;5.194;2023-11-21T15:47:11;13.55;;;8.57;;
53646;SDS011;39550;52.230;5.194;2023-11-21T15:49:42;13.68;;;8.93;;
53646;SDS011;39550;52.230;5.194;2023-11-21T15:52:10;12.85;;;8.65;;
53646;SDS011;39550;52.230;5.194;2023-11-21T15:55:31;12.07;;;7.53;;
53646;SDS011;39550;52.230;5.194;2023-11-21T15:57:56;12.38;;;8.60;;
53646;SDS011;39550;52.230;5.194;2023-11-21T16:00:27;13.80;;;8.95;;
53646;SDS011;39550;52.230;5.194;2023-11-21T16:02:55;12.55;;;8.32;;
53646;SDS011;39550;52.230;5.194;2023-11-21T16:05:22;13.18;;;9.13;;
53646;SDS011;39550;52.230;5.194;2023-11-21T16:07:50;12.68;;;8.07;;
53646;SDS011;39550;52.230;5.194;2023-11-21T16:10:19;11.10;;;7.90;;
53646;SDS011;39550;52.230;5.194;2023-11-21T16:12:45;11.20;;;7.82;;
53646;SDS011;39550;52.230;5.194;2023-11-21T16:15:31;12.75;;;8.45;;
53646;SDS011;39550;52.230;5.194;2023-11-21T16:17:58;11.63;;;8.75;;
53646;SDS011;39550;52.230;5.194;2023-11-21T16:23:02;12.25;;;7.97;;
53646;SDS011;39550;52.230;5.194;2023-11-21T16:25:51;14.70;;;8.50;;
53646;SDS011;39550;52.230;5.194;2023-11-21T16:31:45;13.00;;;8.55;;
53646;SDS011;39550;52.230;5.194;2023-11-21T16:42:40;14.38;;;8.90;;
53646;SDS011;39550;52.230;5.194;2023-11-21T16:45:06;12.05;;;8.68;;
53646;SDS011;39550;52.230;5.194;2023-11-21T16:47:53;14.20;;;8.63;;
53646;SDS011;39550;52.230;5.194;2023-11-21T16:54:15;10.98;;;8.20;;
53646;SDS011;39550;52.230;5.194;2023-11-21T16:56:44;13.20;;;8.80;;
53646;SDS011;39550;52.230;5.194;2023-11-21T17:02:49;13.65;;;9.07;;
53646;SDS011;39550;52.230;5.194;2023-11-21T17:11:55;12.85;;;8.88;;
53646;SDS011;39550;52.230;5.194;2023-11-21T17:14:38;12.73;;;8.95;;
53646;SDS011;39550;52.230;5.194;2023-11-21T17:17:08;11.40;;;8.05;;
53646;SDS011;39550;52.230;5.194;2023-11-21T17:19:41;11.82;;;8.38;;
53646;SDS011;39550;52.230;5.194;2023-11-21T17:22:13;12.20;;;8.55;;
53646;SDS011;39550;52.230;5.194;2023-11-21T17:24:47;13.13;;;9.27;;
53646;SDS011;39550;52.230;5.194;2023-11-21T17:27:13;12.85;;;8.98;;
53646;SDS011;39550;52.230;5.194;2023-11-21T17:29:38;13.05;;;9.38;;
53646;SDS011;39550;52.230;5.194;2023-11-21T17:32:25;14.27;;;10.77;;
53646;SDS011;39550;52.230;5.194;2023-11-21T17:35:20;11.98;;;8.05;;
53646;SDS011;39550;52.230;5.194;2023-11-21T17:37:48;12.65;;;8.80;;
53646;SDS011;39550;52.230;5.194;2023-11-21T17:40:17;12.52;;;8.73;;
53646;SDS011;39550;52.230;5.194;2023-11-21T17:42:53;12.13;;;8.55;;
53646;SDS011;39550;52.230;5.194;2023-11-21T17:45:19;12.18;;;8.45;;
53646;SDS011;39550;52.230;5.194;2023-11-21T17:47:48;12.10;;;8.27;;
53646;SDS011;39550;52.230;5.194;2023-11-21T17:50:13;11.73;;;7.97;;
53646;SDS011;39550;52.230;5.194;2023-11-21T17:52:39;11.82;;;8.25;;
53646;SDS011;39550;52.230;5.194;2023-11-21T17:55:04;12.43;;;8.55;;
53646;SDS011;39550;52.230;5.194;2023-11-21T17:57:31;13.38;;;8.82;;
53646;SDS011;39550;52.230;5.194;2023-11-21T17:59:57;12.45;;;8.25;;
53646;SDS011;39550;52.230;5.194;2023-11-21T18:02:22;12.38;;;8.82;;
53646;SDS011;39550;52.230;5.194;2023-11-21T18:04:48;12.52;;;8.57;;
53646;SDS011;39550;52.230;5.194;2023-11-21T18:07:13;12.38;;;8.07;;
53646;SDS011;39550;52.230;5.194;2023-11-21T18:09:41;12.80;;;8.68;;
53646;SDS011;39550;52.230;5.194;2023-11-21T18:15:21;12.55;;;8.40;;
53646;SDS011;39550;52.230;5.194;2023-11-21T18:24:16;12.05;;;8.70;;
53646;SDS011;39550;52.230;5.194;2023-11-21T18:27:10;12.48;;;8.93;;
53646;SDS011;39550;52.230;5.194;2023-11-21T18:29:49;11.90;;;8.38;;
53646;SDS011;39550;52.230;5.194;2023-11-21T18:32:18;12.38;;;8.07;;
53646;SDS011;39550;52.230;5.194;2023-11-21T18:38:49;13.07;;;8.70;;
53646;SDS011;39550;52.230;5.194;2023-11-21T18:44:07;11.65;;;8.50;;
53646;SDS011;39550;52.230;5.194;2023-11-21T18:46:39;13.50;;;9.18;;
53646;SDS011;39550;52.230;5.194;2023-11-21T18:49:07;10.93;;;8.05;;
53646;SDS011;39550;52.230;5.194;2023-11-21T18:51:33;12.55;;;8.52;;
53646;SDS011;39550;52.230;5.194;2023-11-21T18:54:22;11.23;;;8.35;;
53646;SDS011;39550;52.230;5.194;2023-11-21T18:56:52;11.75;;;8.23;;
53646;SDS011;39550;52.230;5.194;2023-11-21T18:59:21;12.45;;;8.90;;
53646;SDS011;39550;52.230;5.194;2023-11-21T19:01:59;13.88;;;8.75;;
53646;SDS011;39550;52.230;5.194;2023-11-21T19:04:38;12.10;;;8.63;;
53646;SDS011;39550;52.230;5.194;2023-11-21T19:07:04;16.90;;;10.63;;
53646;SDS011;39550;52.230;5.194;2023-11-21T19:09:30;15.93;;;11.60;;
53646;SDS011;39550;52.230;5.194;2023-11-21T19:11:59;16.85;;;11.57;;
53646;SDS011;39550;52.230;5.194;2023-11-21T19:14:28;17.20;;;11.10;;
53646;SDS011;39550;52.230;5.194;2023-11-21T19:16:53;14.70;;;10.23;;
53646;SDS011;39550;52.230;5.194;2023-11-21T19:19:19;13.70;;;10.23;;
53646;SDS011;39550;52.230;5.194;2023-11-21T19:21:47;16.23;;;10.73;;
53646;SDS011;39550;52.230;5.194;2023-11-21T19:24:13;14.88;;;10.25;;
53646;SDS011;39550;52.230;5.194;2023-11-21T19:26:43;15.40;;;10.10;;
53646;SDS011;39550;52.230;5.194;2023-11-21T19:29:13;15.13;;;10.65;;
53646;SDS011;39550;52.230;5.194;2023-11-21T19:31:41;13.63;;;10.00;;
53646;SDS011;39550;52.230;5.194;2023-11-21T19:37:34;15.27;;;9.68;;
53646;SDS011;39550;52.230;5.194;2023-11-21T19:43:14;16.65;;;10.35;;
53646;SDS011;39550;52.230;5.194;2023-11-21T19:45:43;15.48;;;10.02;;
53646;SDS011;39550;52.230;5.194;2023-11-21T19:48:12;15.60;;;10.15;;
53646;SDS011;39550;52.230;5.194;2023-11-21T19:51:17;14.25;;;9.38;;
53646;SDS011;39550;52.230;5.194;2023-11-21T20:01:20;15.23;;;9.98;;
53646;SDS011;39550;52.230;5.194;2023-11-21T20:03:58;17.15;;;9.75;;
53646;SDS011;39550;52.230;5.194;2023-11-21T20:06:47;13.75;;;9.55;;
53646;SDS011;39550;52.230;5.194;2023-11-21T20:09:48;14.27;;;9.93;;
53646;SDS011;39550;52.230;5.194;2023-11-21T20:12:27;14.75;;;10.00;;
53646;SDS011;39550;52.230;5.194;2023-11-21T20:14:57;13.85;;;9.63;;
53646;SDS011;39550;52.230;5.194;2023-11-21T20:17:45;14.53;;;10.23;;
53646;SDS011;39550;52.230;5.194;2023-11-21T20:20:13;14.18;;;9.98;;
53646;SDS011;39550;52.230;5.194;2023-11-21T20:22:49;16.48;;;10.48;;
53646;SDS011;39550;52.230;5.194;2023-11-21T20:26:19;15.18;;;10.23;;
53646;SDS011;39550;52.230;5.194;2023-11-21T20:29:12;15.35;;;9.90;;
53646;SDS011;39550;52.230;5.194;2023-11-21T20:31:48;15.40;;;10.65;;
53646;SDS011;39550;52.230;5.194;2023-11-21T20:35:14;15.63;;;10.63;;
53646;SDS011;39550;52.230;5.194;2023-11-21T20:41:11;14.40;;;9.80;;
53646;SDS011;39550;52.230;5.194;2023-11-21T20:47:13;15.73;;;9.68;;
53646;SDS011;39550;52.230;5.194;2023-11-21T21:00:11;15.63;;;10.32;;
53646;SDS011;39550;52.230;5.194;2023-11-21T21:02:50;12.90;;;9.52;;
53646;SDS011;39550;52.230;5.194;2023-11-21T21:05:44;14.63;;;10.48;;
53646;SDS011;39550;52.230;5.194;2023-11-21T21:21:45;13.57;;;9.70;;
53646;SDS011;39550;52.230;5.194;2023-11-21T21:27:54;13.35;;;9.52;;
53646;SDS011;39550;52.230;5.194;2023-11-21T21:38:15;13.52;;;9.32;;
53646;SDS011;39550;52.230;5.194;2023-11-21T21:41:16;12.70;;;9.27;;
53646;SDS011;39550;52.230;5.194;2023-11-21T21:50:12;13.77;;;9.75;;
53646;SDS011;39550;52.230;5.194;2023-11-21T21:56:39;13.73;;;9.05;;
53646;SDS011;39550;52.230;5.194;2023-11-21T21:59:40;15.45;;;9.50;;
53646;SDS011;39550;52.230;5.194;2023-11-21T22:12:59;12.57;;;9.88;;
53646;SDS011;39550;52.230;5.194;2023-11-21T22:19:27;13.32;;;8.90;;
53646;SDS011;39550;52.230;5.194;2023-11-21T22:22:01;13.43;;;9.23;;
53646;SDS011;39550;52.230;5.194;2023-11-21T22:25:21;12.40;;;9.00;;
53646;SDS011;39550;52.230;5.194;2023-11-21T22:27:52;12.98;;;9.40;;
53646;SDS011;39550;52.230;5.194;2023-11-21T22:31:04;13.45;;;9.70;;
53646;SDS011;39550;52.230;5.194;2023-11-21T22:33:43;13.23;;;9.40;;
53646;SDS011;39550;52.230;5.194;2023-11-21T22:36:28;14.60;;;9.63;;
53646;SDS011;39550;52.230;5.194;2023-11-21T22:39:55;13.35;;;8.93;;
53646;SDS011;39550;52.230;5.194;2023-11-21T22:48:25;13.18;;;9.65;;
53646;SDS011;39550;52.230;5.194;2023-11-21T22:51:12;13.55;;;9.70;;
53646;SDS011;39550;52.230;5.194;2023-11-21T22:53:44;12.77;;;9.13;;
53646;SDS011;39550;52.230;5.194;2023-11-21T22:56:41;13.90;;;9.52;;
53646;SDS011;39550;52.230;5.194;2023-11-21T22:59:22;12.57;;;8.95;;
53646;SDS011;39550;52.230;5.194;2023-11-21T23:02:04;12.27;;;8.93;;
53646;SDS011;39550;52.230;5.194;2023-11-21T23:05:18;12.95;;;9.45;;
53646;SDS011;39550;52.230;5.194;2023-11-21T23:21:11;14.02;;;8.90;;
53646;SDS011;39550;52.230;5.194;2023-11-21T23:23:39;12.68;;;8.55;;
53646;SDS011;39550;52.230;5.194;2023-11-21T23:26:34;13.45;;;9.55;;
53646;SDS011;39550;52.230;5.194;2023-11-21T23:32:26;12.70;;;9.32;;
53646;SDS011;39550;52.230;5.194;2023-11-21T23:37:59;13.13;;;9.20;;
53646;SDS011;39550;52.230;5.194;2023-11-21T23:40:32;12.65;;;8.88;;
53646;SDS011;39550;52.230;5.194;2023-11-21T23:46:23;13.57;;;8.95;;
53646;SDS011;39550;52.230;5.194;2023-11-21T23:49:36;14.15;;;10.15;;
53646;SDS011;39550;52.230;5.194;2023-11-21T23:52:19;13.15;;;9.25;;
53646;SDS011;39550;52.230;5.194;2023-11-21T23:55:39;14.25;;;9.48;;
53646;SDS011;39550;52.230;5.194;2023-11-21T23:58:15;13.50;;;9.77;;
